sensor_id;sensor_type;location;lat;lon;timestamp;pressure;altitude;pressure_sealevel;temperature;humidity
57376;BME280;44805;45.048;5.062;2023-02-17T00:01:45;101098.50;;;2.45;86.90
57376;BME280;44805;45.048;5.062;2023-02-17T00:04:12;101132.28;;;2.88;86.51
57376;BME280;44805;45.048;5.062;2023-02-17T00:06:45;101083.22;;;2.37;86.52
57376;BME280;44805;45.048;5.062;2023-02-17T00:12:41;100958.44;;;1.54;86.83
57376;BME280;44805;45.048;5.062;2023-02-17T00:15:06;101038.78;;;2.01;86.32
57376;BME280;44805;45.048;5.062;2023-02-17T00:17:41;100956.81;;;1.51;86.78
57376;BME280;44805;45.048;5.062;2023-02-17T00:20:09;101112.66;;;2.16;88.48
57376;BME280;44805;45.048;5.062;2023-02-17T00:22:36;101099.97;;;2.08;88.42
57376;BME280;44805;45.048;5.062;2023-02-17T00:28:58;101177.34;;;2.66;88.05
57376;BME280;44805;45.048;5.062;2023-02-17T00:31:39;101140.09;;;2.45;88.50
57376;BME280;44805;45.048;5.062;2023-02-17T01:16:14;101009.97;;;1.41;88.26
57376;BME280;44805;45.048;5.062;2023-02-17T01:19:37;100996.63;;;1.28;88.38
57376;BME280;44805;45.048;5.062;2023-02-17T01:22:38;101031.41;;;1.46;88.07
57376;BME280;44805;45.048;5.062;2023-02-17T01:28:52;100996.34;;;1.36;88.60
57376;BME280;44805;45.048;5.062;2023-02-17T01:35:18;100994.16;;;1.25;87.72
57376;BME280;44805;45.048;5.062;2023-02-17T01:38:54;100997.03;;;1.18;89.44
57376;BME280;44805;45.048;5.062;2023-02-17T01:42:26;101022.97;;;1.18;89.76
57376;BME280;44805;45.048;5.062;2023-02-17T01:48:42;100991.38;;;1.06;89.13
57376;BME280;44805;45.048;5.062;2023-02-17T02:41:10;101161.28;;;1.67;90.25
57376;BME280;44805;45.048;5.062;2023-02-17T06:58:05;101217.22;;;1.02;91.36
57376;BME280;44805;45.048;5.062;2023-02-17T07:00:42;101027.38;;;-0.10;92.01
57376;BME280;44805;45.048;5.062;2023-02-17T07:21:52;101045.56;;;0.15;91.58
57376;BME280;44805;45.048;5.062;2023-02-17T07:28:03;101032.28;;;0.25;91.20
57376;BME280;44805;45.048;5.062;2023-02-17T07:30:30;101132.88;;;0.90;91.78
57376;BME280;44805;45.048;5.062;2023-02-17T07:33:05;101152.16;;;1.08;91.97
57376;BME280;44805;45.048;5.062;2023-02-17T07:35:59;101055.41;;;0.56;91.55
57376;BME280;44805;45.048;5.062;2023-02-17T07:38:25;101073.00;;;0.73;89.97
57376;BME280;44805;45.048;5.062;2023-02-17T07:44:13;101121.56;;;1.18;90.53
57376;BME280;44805;45.048;5.062;2023-02-17T07:46:48;101029.41;;;0.59;90.46
57376;BME280;44805;45.048;5.062;2023-02-17T07:49:13;101173.03;;;1.54;90.60
57376;BME280;44805;45.048;5.062;2023-02-17T07:51:42;101071.34;;;0.95;90.35
57376;BME280;44805;45.048;5.062;2023-02-17T07:54:09;101135.47;;;1.40;90.90
57376;BME280;44805;45.048;5.062;2023-02-17T07:56:52;101249.97;;;2.27;90.85
57376;BME280;44805;45.048;5.062;2023-02-17T07:59:23;101145.72;;;1.67;90.33
57376;BME280;44805;45.048;5.062;2023-02-17T08:02:03;101065.38;;;1.40;89.84
57376;BME280;44805;45.048;5.062;2023-02-17T08:04:39;101070.75;;;1.58;89.14
57376;BME280;44805;45.048;5.062;2023-02-17T08:07:10;101087.47;;;1.74;86.74
57376;BME280;44805;45.048;5.062;2023-02-17T08:13:45;101263.41;;;3.04;85.68
57376;BME280;44805;45.048;5.062;2023-02-17T08:16:28;101100.94;;;2.06;85.91
57376;BME280;44805;45.048;5.062;2023-02-17T08:19:01;101042.66;;;1.69;86.15
57376;BME280;44805;45.048;5.062;2023-02-17T08:21:44;101057.75;;;1.81;86.23
57376;BME280;44805;45.048;5.062;2023-02-17T08:27:07;101175.94;;;2.79;85.67
57376;BME280;44805;45.048;5.062;2023-02-17T08:46:35;101069.72;;;3.10;83.58
57376;BME280;44805;45.048;5.062;2023-02-17T08:49:05;101136.31;;;3.53;84.42
57376;BME280;44805;45.048;5.062;2023-02-17T08:51:31;101181.81;;;3.84;83.41
57376;BME280;44805;45.048;5.062;2023-02-17T08:53:58;101092.25;;;3.30;83.08
57376;BME280;44805;45.048;5.062;2023-02-17T08:59:55;101157.63;;;3.82;82.17
57376;BME280;44805;45.048;5.062;2023-02-17T09:02:24;101111.84;;;3.76;81.18
57376;BME280;44805;45.048;5.062;2023-02-17T09:04:58;101133.81;;;3.70;82.20
57376;BME280;44805;45.048;5.062;2023-02-17T09:10:49;101093.38;;;4.00;80.61
57376;BME280;44805;45.048;5.062;2023-02-17T09:13:16;101168.38;;;4.48;79.70
57376;BME280;44805;45.048;5.062;2023-02-17T09:15:49;101171.66;;;4.34;79.83
57376;BME280;44805;45.048;5.062;2023-02-17T09:18:23;101175.31;;;4.67;78.81
57376;BME280;44805;45.048;5.062;2023-02-17T09:21:07;101065.47;;;4.02;78.73
57376;BME280;44805;45.048;5.062;2023-02-17T09:28:37;101094.00;;;4.59;77.66
57376;BME280;44805;45.048;5.062;2023-02-17T09:31:13;101260.63;;;5.86;77.27
57376;BME280;44805;45.048;5.062;2023-02-17T09:33:42;101108.19;;;5.21;76.48
57376;BME280;44805;45.048;5.062;2023-02-17T09:36:14;101079.63;;;5.18;76.20
57376;BME280;44805;45.048;5.062;2023-02-17T09:38:41;101183.88;;;5.87;75.21
57376;BME280;44805;45.048;5.062;2023-02-17T09:47:26;101129.00;;;5.87;75.77
57376;BME280;44805;45.048;5.062;2023-02-17T09:49:56;101256.16;;;6.69;75.97
57376;BME280;44805;45.048;5.062;2023-02-17T09:55:03;101158.38;;;6.24;75.24
57376;BME280;44805;45.048;5.062;2023-02-17T09:58:17;101159.94;;;6.43;75.46
57376;BME280;44805;45.048;5.062;2023-02-17T10:00:49;101142.91;;;6.36;75.67
57376;BME280;44805;45.048;5.062;2023-02-17T10:03:34;101131.75;;;6.48;73.88
57376;BME280;44805;45.048;5.062;2023-02-17T10:08:44;101147.25;;;6.67;73.40
57376;BME280;44805;45.048;5.062;2023-02-17T10:21:18;101231.59;;;7.75;71.83
57376;BME280;44805;45.048;5.062;2023-02-17T10:23:46;101079.72;;;7.02;71.46
57376;BME280;44805;45.048;5.062;2023-02-17T10:26:43;101248.53;;;8.27;69.84
57376;BME280;44805;45.048;5.062;2023-02-17T10:29:33;101250.94;;;8.44;70.30
57376;BME280;44805;45.048;5.062;2023-02-17T10:32:16;101255.03;;;8.63;69.30
57376;BME280;44805;45.048;5.062;2023-02-17T10:35:17;101132.38;;;8.11;67.65
57376;BME280;44805;45.048;5.062;2023-02-17T10:47:28;101140.63;;;9.24;64.54
57376;BME280;44805;45.048;5.062;2023-02-17T10:49:55;101157.31;;;9.49;63.15
57376;BME280;44805;45.048;5.062;2023-02-17T10:52:24;101091.63;;;9.23;62.96
57376;BME280;44805;45.048;5.062;2023-02-17T10:54:56;101089.09;;;9.34;63.61
57376;BME280;44805;45.048;5.062;2023-02-17T11:00:46;101125.22;;;10.06;60.45
57376;BME280;44805;45.048;5.062;2023-02-17T11:03:21;101084.63;;;9.97;61.26
57376;BME280;44805;45.048;5.062;2023-02-17T11:06:03;101063.91;;;9.93;60.26
57376;BME280;44805;45.048;5.062;2023-02-17T11:08:42;101074.69;;;10.25;62.02
57376;BME280;44805;45.048;5.062;2023-02-17T11:11:30;101068.19;;;10.42;59.53
57376;BME280;44805;45.048;5.062;2023-02-17T11:14:12;101074.13;;;10.57;59.50
57376;BME280;44805;45.048;5.062;2023-02-17T11:16:50;101122.47;;;11.02;59.44
57376;BME280;44805;45.048;5.062;2023-02-17T11:19:29;101050.03;;;10.50;58.63
57376;BME280;44805;45.048;5.062;2023-02-17T11:22:29;101043.84;;;10.62;57.57
57376;BME280;44805;45.048;5.062;2023-02-17T11:25:00;101047.94;;;10.78;57.05
57376;BME280;44805;45.048;5.062;2023-02-17T11:27:52;101046.38;;;10.75;57.93
57376;BME280;44805;45.048;5.062;2023-02-17T11:30:23;101190.84;;;11.73;57.98
57376;BME280;44805;45.048;5.062;2023-02-17T11:33:22;101055.00;;;10.89;57.74
57376;BME280;44805;45.048;5.062;2023-02-17T11:35:52;101102.59;;;11.32;57.42
57376;BME280;44805;45.048;5.062;2023-02-17T11:38:28;101051.31;;;11.25;56.60
57376;BME280;44805;45.048;5.062;2023-02-17T11:41:37;101180.75;;;12.12;55.94
57376;BME280;44805;45.048;5.062;2023-02-17T12:38:24;101003.06;;;12.84;52.72
57376;BME280;44805;45.048;5.062;2023-02-17T12:41:09;101087.97;;;13.52;50.92
57376;BME280;44805;45.048;5.062;2023-02-17T12:44:05;101087.00;;;13.53;52.10
57376;BME280;44805;45.048;5.062;2023-02-17T12:46:42;100921.69;;;12.47;50.82
57376;BME280;44805;45.048;5.062;2023-02-17T12:49:13;100914.75;;;12.56;52.79
57376;BME280;44805;45.048;5.062;2023-02-17T12:51:57;101067.41;;;13.65;52.98
57376;BME280;44805;45.048;5.062;2023-02-17T12:54:35;100921.13;;;12.84;50.78
57376;BME280;44805;45.048;5.062;2023-02-17T13:00:33;100937.78;;;13.25;50.10
57376;BME280;44805;45.048;5.062;2023-02-17T13:02:59;100908.81;;;13.14;49.48
57376;BME280;44805;45.048;5.062;2023-02-17T13:08:25;101053.22;;;13.96;50.82
57376;BME280;44805;45.048;5.062;2023-02-17T13:11:03;100897.13;;;13.16;51.56
57376;BME280;44805;45.048;5.062;2023-02-17T13:16:51;100957.50;;;13.61;51.34
57376;BME280;44805;45.048;5.062;2023-02-17T13:19:37;100905.28;;;13.44;51.56
57376;BME280;44805;45.048;5.062;2023-02-17T13:22:02;100947.59;;;13.83;51.29
57376;BME280;44805;45.048;5.062;2023-02-17T13:24:51;100955.25;;;13.96;52.15
57376;BME280;44805;45.048;5.062;2023-02-17T13:27:29;100967.81;;;13.84;53.34
57376;BME280;44805;45.048;5.062;2023-02-17T13:30:07;100877.63;;;13.17;54.10
57376;BME280;44805;45.048;5.062;2023-02-17T13:35:42;100880.13;;;13.97;51.52
57376;BME280;44805;45.048;5.062;2023-02-17T13:38:11;100934.16;;;14.43;51.56
57376;BME280;44805;45.048;5.062;2023-02-17T13:40:38;100920.72;;;14.54;51.12
57376;BME280;44805;45.048;5.062;2023-02-17T13:43:18;100873.97;;;14.16;51.45
57376;BME280;44805;45.048;5.062;2023-02-17T13:45:57;101000.53;;;15.44;49.94
57376;BME280;44805;45.048;5.062;2023-02-17T13:48:33;101013.81;;;15.89;49.67
57376;BME280;44805;45.048;5.062;2023-02-17T13:51:06;100917.75;;;15.58;48.72
57376;BME280;44805;45.048;5.062;2023-02-17T13:53:37;100956.41;;;15.70;48.66
57376;BME280;44805;45.048;5.062;2023-02-17T13:56:21;100847.31;;;15.10;48.43
57376;BME280;44805;45.048;5.062;2023-02-17T13:59:24;100872.41;;;15.33;47.78
57376;BME280;44805;45.048;5.062;2023-02-17T14:01:56;101013.34;;;16.30;47.79
57376;BME280;44805;45.048;5.062;2023-02-17T14:04:26;100869.06;;;15.49;47.34
57376;BME280;44805;45.048;5.062;2023-02-17T14:09:32;100863.63;;;15.33;47.50
57376;BME280;44805;45.048;5.062;2023-02-17T14:18:38;100947.19;;;16.00;49.28
57376;BME280;44805;45.048;5.062;2023-02-17T14:21:22;100865.81;;;15.55;50.88
57376;BME280;44805;45.048;5.062;2023-02-17T14:23:53;100845.78;;;15.43;50.67
57376;BME280;44805;45.048;5.062;2023-02-17T14:26:37;100994.72;;;16.30;51.68
57376;BME280;44805;45.048;5.062;2023-02-17T14:32:36;100914.38;;;16.10;51.85
57376;BME280;44805;45.048;5.062;2023-02-17T14:37:36;100899.22;;;16.02;51.94
57376;BME280;44805;45.048;5.062;2023-02-17T14:40:24;100914.28;;;16.19;52.75
57376;BME280;44805;45.048;5.062;2023-02-17T14:46:07;100870.03;;;15.66;51.78
57376;BME280;44805;45.048;5.062;2023-02-17T14:48:35;101005.78;;;16.43;51.77
57376;BME280;44805;45.048;5.062;2023-02-17T14:51:01;100944.06;;;16.05;52.06
57376;BME280;44805;45.048;5.062;2023-02-17T14:53:29;100868.28;;;15.57;52.50
57376;BME280;44805;45.048;5.062;2023-02-17T15:01:38;100845.34;;;15.48;52.55
57376;BME280;44805;45.048;5.062;2023-02-17T15:04:04;100908.13;;;15.93;52.59
57376;BME280;44805;45.048;5.062;2023-02-17T15:06:41;100925.72;;;16.20;53.23
57376;BME280;44805;45.048;5.062;2023-02-17T15:09:13;100904.94;;;16.15;53.57
57376;BME280;44805;45.048;5.062;2023-02-17T15:11:40;100878.72;;;16.20;52.94
57376;BME280;44805;45.048;5.062;2023-02-17T15:24:24;100849.38;;;16.30;52.20
57376;BME280;44805;45.048;5.062;2023-02-17T15:26:50;100945.53;;;16.78;52.47
57376;BME280;44805;45.048;5.062;2023-02-17T15:32:37;100921.03;;;16.40;52.50
57376;BME280;44805;45.048;5.062;2023-02-17T15:35:26;100865.56;;;16.11;52.96
57376;BME280;44805;45.048;5.062;2023-02-17T15:38:04;100858.69;;;16.00;54.02
57376;BME280;44805;45.048;5.062;2023-02-17T15:40:42;100966.38;;;16.64;53.11
57376;BME280;44805;45.048;5.062;2023-02-17T15:56:50;100852.22;;;15.58;54.38
57376;BME280;44805;45.048;5.062;2023-02-17T16:01:51;101021.84;;;16.59;54.71
57376;BME280;44805;45.048;5.062;2023-02-17T16:04:21;100870.03;;;15.66;55.13
57376;BME280;44805;45.048;5.062;2023-02-17T16:06:54;100863.53;;;15.43;55.72
57376;BME280;44805;45.048;5.062;2023-02-17T16:09:19;100914.16;;;15.67;55.77
57376;BME280;44805;45.048;5.062;2023-02-17T16:11:50;100895.47;;;15.51;56.56
57376;BME280;44805;45.048;5.062;2023-02-17T16:14:20;101039.22;;;16.27;58.36
57376;BME280;44805;45.048;5.062;2023-02-17T16:17:01;100889.63;;;15.29;58.28
57376;BME280;44805;45.048;5.062;2023-02-17T16:19:30;100905.25;;;15.32;58.82
57376;BME280;44805;45.048;5.062;2023-02-17T16:22:00;100904.63;;;15.20;59.19
57376;BME280;44805;45.048;5.062;2023-02-17T17:02:13;101066.94;;;15.34;61.06
57376;BME280;44805;45.048;5.062;2023-02-17T17:04:38;100918.91;;;14.45;61.57
57376;BME280;44805;45.048;5.062;2023-02-17T17:07:12;101065.72;;;15.28;61.91
57376;BME280;44805;45.048;5.062;2023-02-17T17:09:40;100989.41;;;14.85;61.83
57376;BME280;44805;45.048;5.062;2023-02-17T21:23:57;101140.94;;;11.92;78.56
57376;BME280;44805;45.048;5.062;2023-02-17T21:26:28;101081.50;;;11.66;79.34
57376;BME280;44805;45.048;5.062;2023-02-17T21:28:56;101126.91;;;11.92;79.23
57376;BME280;44805;45.048;5.062;2023-02-17T21:35:01;100981.13;;;10.90;79.83
57376;BME280;44805;45.048;5.062;2023-02-17T21:37:37;101112.41;;;11.75;79.61
57376;BME280;44805;45.048;5.062;2023-02-17T21:43:37;101061.84;;;11.36;80.09
57376;BME280;44805;45.048;5.062;2023-02-17T21:53:26;101184.84;;;12.05;80.55
57376;BME280;44805;45.048;5.062;2023-02-17T21:55:55;101017.06;;;11.02;80.91
57376;BME280;44805;45.048;5.062;2023-02-17T21:58:28;101083.56;;;11.40;80.77
57376;BME280;44805;45.048;5.062;2023-02-17T22:04:15;101092.28;;;11.29;81.61
57376;BME280;44805;45.048;5.062;2023-02-17T22:06:41;101025.06;;;11.01;81.07
57376;BME280;44805;45.048;5.062;2023-02-17T22:09:14;101062.81;;;11.24;80.96
57376;BME280;44805;45.048;5.062;2023-02-17T22:11:43;101119.63;;;11.62;81.09
57376;BME280;44805;45.048;5.062;2023-02-17T22:14:16;101022.31;;;10.91;81.05
57376;BME280;44805;45.048;5.062;2023-02-17T22:17:04;101022.19;;;11.04;80.86
57376;BME280;44805;45.048;5.062;2023-02-17T22:19:30;101090.25;;;11.44;80.53
57376;BME280;44805;45.048;5.062;2023-02-17T22:21:55;101180.28;;;12.07;81.29
57376;BME280;44805;45.048;5.062;2023-02-17T22:24:23;101064.25;;;11.28;81.69
57376;BME280;44805;45.048;5.062;2023-02-17T22:26:52;101014.19;;;10.94;81.46
57376;BME280;44805;45.048;5.062;2023-02-17T22:29:20;101044.63;;;11.10;81.99
57376;BME280;44805;45.048;5.062;2023-02-17T22:31:46;101126.47;;;11.53;81.75
57376;BME280;44805;45.048;5.062;2023-02-17T22:34:17;101018.84;;;10.79;82.08
57376;BME280;44805;45.048;5.062;2023-02-17T22:36:42;101049.72;;;10.89;83.14
57376;BME280;44805;45.048;5.062;2023-02-17T22:39:19;101092.50;;;11.03;83.41
57376;BME280;44805;45.048;5.062;2023-02-17T22:41:44;101139.50;;;11.32;82.75
57376;BME280;44805;45.048;5.062;2023-02-17T22:44:12;101089.91;;;11.15;83.53
57376;BME280;44805;45.048;5.062;2023-02-17T22:46:37;101080.91;;;11.06;83.57
57376;BME280;44805;45.048;5.062;2023-02-17T22:49:11;101128.72;;;11.46;82.92
57376;BME280;44805;45.048;5.062;2023-02-17T22:51:45;101122.97;;;11.41;83.05
57376;BME280;44805;45.048;5.062;2023-02-17T22:54:10;101108.09;;;11.29;83.81
57376;BME280;44805;45.048;5.062;2023-02-17T22:56:36;101135.56;;;11.49;82.96
57376;BME280;44805;45.048;5.062;2023-02-17T22:59:02;101014.28;;;10.70;83.58
57376;BME280;44805;45.048;5.062;2023-02-17T23:08:06;101100.78;;;11.21;84.25
57376;BME280;44805;45.048;5.062;2023-02-17T23:10:32;101133.28;;;11.44;84.21
57376;BME280;44805;45.048;5.062;2023-02-17T23:13:07;101021.94;;;10.73;83.87
57376;BME280;44805;45.048;5.062;2023-02-17T23:18:45;101044.13;;;10.93;83.83
57376;BME280;44805;45.048;5.062;2023-02-17T23:21:14;101029.53;;;10.89;84.89
57376;BME280;44805;45.048;5.062;2023-02-17T23:23:42;101099.72;;;11.24;85.55
57376;BME280;44805;45.048;5.062;2023-02-17T23:26:12;100998.84;;;10.77;86.05
57376;BME280;44805;45.048;5.062;2023-02-17T23:28:40;101053.00;;;11.15;86.10
57376;BME280;44805;45.048;5.062;2023-02-17T23:34:31;101096.97;;;11.37;85.99
57376;BME280;44805;45.048;5.062;2023-02-17T23:36:57;101078.53;;;11.25;85.98
57376;BME280;44805;45.048;5.062;2023-02-17T23:39:23;101198.66;;;11.97;84.88
57376;BME280;44805;45.048;5.062;2023-02-17T23:41:48;101084.03;;;11.22;85.63
57376;BME280;44805;45.048;5.062;2023-02-17T23:44:14;101079.72;;;11.21;85.05
57376;BME280;44805;45.048;5.062;2023-02-17T23:50:02;101062.09;;;11.11;86.00
57376;BME280;44805;45.048;5.062;2023-02-17T23:52:28;101044.13;;;10.93;85.83
57376;BME280;44805;45.048;5.062;2023-02-17T23:54:56;101118.44;;;11.43;85.61
57376;BME280;44805;45.048;5.062;2023-02-17T23:57:29;101114.97;;;11.43;86.79
